createdAt,value
2018-12-16T00:01:39.827Z,47.33
2018-12-16T00:04:13.082Z,47.25
2018-12-16T00:09:59.290Z,47.36
2018-12-16T00:12:28.680Z,45.96
2018-12-16T00:14:57.876Z,46.05
2018-12-16T00:17:27.259Z,44.73
2018-12-16T00:19:56.582Z,45.18
2018-12-16T00:22:29.976Z,46.57
2018-12-16T00:24:58.784Z,45.75
2018-12-16T00:27:28.064Z,46.15
2018-12-16T00:29:57.238Z,45.67
2018-12-16T00:32:28.114Z,47.77
2018-12-16T00:34:57.318Z,48.22
2018-12-16T00:37:27.292Z,47.78
2018-12-16T00:39:57.415Z,47.43
2018-12-16T00:42:27.071Z,46.10
2018-12-16T00:44:56.874Z,46.87
2018-12-16T00:47:26.346Z,47.08
2018-12-16T00:49:55.539Z,47.27
2018-12-16T00:52:26.271Z,47.66
2018-12-16T00:54:56.583Z,47.79
2018-12-16T00:57:25.821Z,46.98
2018-12-16T00:59:55.133Z,47.87
2018-12-16T01:02:31.387Z,48.83
2018-12-16T01:05:01.468Z,47.83
2018-12-16T01:07:31.767Z,47.20
2018-12-16T01:10:01.074Z,46.23
2018-12-16T01:12:31.935Z,46.45
2018-12-16T01:15:02.707Z,47.40
2018-12-16T01:17:31.907Z,46.90
2018-12-16T01:20:01.208Z,45.71
2018-12-16T01:22:30.512Z,46.81
2018-12-16T01:24:59.912Z,46.43
2018-12-16T01:27:29.910Z,46.70
2018-12-16T01:29:59.215Z,45.89
2018-12-16T01:32:28.434Z,45.47
2018-12-16T01:34:57.636Z,45.66
2018-12-16T01:37:27.854Z,46.21
2018-12-16T01:39:58.458Z,47.54
2018-12-16T01:42:27.659Z,47.07
2018-12-16T01:44:57.224Z,46.46
2018-12-16T01:47:26.418Z,46.04
2018-12-16T01:49:55.620Z,46.67
2018-12-16T01:52:25.923Z,46.34
2018-12-16T01:54:55.379Z,47.20
2018-12-16T01:57:24.799Z,48.29
2018-12-16T01:59:54.222Z,48.19
2018-12-16T02:02:23.602Z,49.83
2018-12-16T02:04:54.201Z,49.79
2018-12-16T02:07:23.419Z,51.28
2018-12-16T02:09:52.670Z,51.83
2018-12-16T02:12:21.858Z,53.63
2018-12-16T02:14:51.124Z,54.32
2018-12-16T02:17:21.262Z,54.98
2018-12-16T02:19:50.684Z,55.47
2018-12-16T02:22:20.208Z,57.02
2018-12-16T02:24:49.492Z,58.60
2018-12-16T02:27:18.814Z,58.01
2018-12-16T02:29:50.351Z,58.43
2018-12-16T02:32:19.671Z,57.83
2018-12-16T02:34:48.955Z,57.30
2018-12-16T02:37:18.279Z,59.19
2018-12-16T02:41:17.271Z,58.04
2018-12-16T02:43:47.070Z,60.07
2018-12-16T02:46:16.495Z,60.22
2018-12-16T02:48:45.852Z,59.97
2018-12-16T02:51:15.307Z,59.13
2018-12-16T02:53:46.848Z,58.87
2018-12-16T02:56:16.368Z,59.41
2018-12-16T02:58:45.765Z,59.35
2018-12-16T03:01:15.127Z,60.23
2018-12-16T03:03:45.387Z,60.50
2018-12-16T03:06:15.234Z,60.33
2018-12-16T03:08:44.489Z,59.81
2018-12-16T03:11:14.004Z,59.32
2018-12-16T03:13:43.247Z,59.62
2018-12-16T03:16:14.306Z,58.98
2018-12-16T03:18:45.210Z,59.39
2018-12-16T03:21:14.454Z,60.90
2018-12-16T03:23:43.687Z,60.32
2018-12-16T03:26:13.362Z,62.61
2018-12-16T03:28:43.067Z,61.16
2018-12-16T03:31:12.269Z,61.09
2018-12-16T03:33:41.727Z,59.64
2018-12-16T03:36:11.065Z,58.50
2018-12-16T03:38:42.368Z,59.05
2018-12-16T03:41:12.131Z,59.53
2018-12-16T03:43:41.352Z,59.20
2018-12-16T03:46:10.635Z,59.68
2018-12-16T03:48:39.833Z,59.48
2018-12-16T03:51:09.567Z,59.93
2018-12-16T03:53:40.964Z,60.16
2018-12-16T03:56:10.323Z,59.93
2018-12-16T03:58:50.759Z,61.14
2018-12-16T04:01:20.493Z,60.69
2018-12-16T04:03:50.121Z,59.80
2018-12-16T04:06:19.348Z,60.93
2018-12-16T04:08:48.578Z,63.77
2018-12-16T04:11:17.752Z,62.30
2018-12-16T04:13:48.133Z,61.79
2018-12-16T04:16:19.816Z,61.39
2018-12-16T04:18:49.142Z,62.76
2018-12-16T04:21:18.488Z,63.85
2018-12-16T04:23:48.338Z,64.05
2018-12-16T04:26:17.951Z,63.57
2018-12-16T04:28:47.836Z,63.55
2018-12-16T04:31:19.424Z,62.74
2018-12-16T04:33:49.172Z,63.72
2018-12-16T04:36:19.335Z,63.31
2018-12-16T04:38:48.654Z,63.35
2018-12-16T04:41:17.858Z,64.29
2018-12-16T04:43:47.072Z,64.69
2018-12-16T04:46:17.320Z,63.73
2018-12-16T04:48:46.521Z,63.22
2018-12-16T04:51:15.695Z,63.56
2018-12-16T04:53:44.975Z,63.48
2018-12-16T04:56:14.178Z,63.58
2018-12-16T04:58:45.525Z,64.05
2018-12-16T05:01:14.847Z,63.36
2018-12-16T05:03:44.101Z,62.95
2018-12-16T05:06:13.295Z,65.18
2018-12-16T05:08:42.691Z,63.29
2018-12-16T05:11:12.927Z,62.00
2018-12-16T05:13:42.159Z,62.84
2018-12-16T05:16:11.824Z,63.98
2018-12-16T05:18:41.096Z,63.69
2018-12-16T05:21:10.320Z,62.33
2018-12-16T05:23:42.244Z,61.57
2018-12-16T05:26:11.538Z,60.70
2018-12-16T05:28:40.986Z,60.85
2018-12-16T05:31:10.263Z,60.83
2018-12-16T05:33:40.731Z,60.09
2018-12-16T05:36:10.410Z,59.48
2018-12-16T05:38:39.734Z,59.07
2018-12-16T05:41:08.935Z,58.63
2018-12-16T05:43:38.128Z,58.91
2018-12-16T05:46:12.120Z,61.81
2018-12-16T05:48:41.319Z,59.95
2018-12-16T05:51:10.520Z,59.48
2018-12-16T05:53:39.915Z,59.36
2018-12-16T05:56:10.034Z,58.42
2018-12-16T05:58:39.436Z,58.63
2018-12-16T06:01:10.000Z,59.15
2018-12-16T06:03:39.217Z,60.94
2018-12-16T06:06:08.468Z,60.33
2018-12-16T06:08:38.802Z,60.17
2018-12-16T06:11:08.043Z,59.24
2018-12-16T06:13:37.336Z,58.24
2018-12-16T06:16:06.682Z,58.13
2018-12-16T06:18:35.935Z,57.18
2018-12-16T06:21:08.512Z,56.32
2018-12-16T06:23:37.684Z,56.99
2018-12-16T06:26:06.906Z,56.02
2018-12-16T06:28:36.415Z,56.86
2018-12-16T06:31:05.938Z,55.73
2018-12-16T06:33:35.631Z,56.22
2018-12-16T06:36:04.931Z,56.12
2018-12-16T06:38:34.250Z,55.39
2018-12-16T06:41:03.546Z,57.38
2018-12-16T06:43:34.484Z,57.08
2018-12-16T06:46:04.236Z,56.17
2018-12-16T06:48:33.503Z,57.08
2018-12-16T06:52:32.195Z,58.40
2018-12-16T06:55:01.891Z,56.94
2018-12-16T06:57:31.800Z,57.10
2018-12-16T07:00:03.149Z,56.33
2018-12-16T07:02:33.598Z,55.16
2018-12-16T07:05:03.105Z,56.26
2018-12-16T07:07:32.795Z,55.93
2018-12-16T07:10:02.136Z,55.39
2018-12-16T07:12:31.374Z,56.00
2018-12-16T07:15:01.004Z,55.23
2018-12-16T07:17:30.711Z,55.40
2018-12-16T07:20:00.451Z,55.89
2018-12-16T07:22:30.322Z,55.24
2018-12-16T07:24:59.543Z,54.00
2018-12-16T07:27:28.765Z,55.03
2018-12-16T07:29:58.968Z,53.94
2018-12-16T07:32:29.231Z,54.52
2018-12-16T07:34:58.483Z,54.70
2018-12-16T07:38:57.148Z,57.37
2018-12-16T07:41:27.206Z,55.05
2018-12-16T07:43:56.978Z,54.39
2018-12-16T07:46:26.271Z,55.05
2018-12-16T07:48:55.706Z,54.89
2018-12-16T07:51:24.930Z,55.70
2018-12-16T07:53:57.556Z,55.15
2018-12-16T07:56:27.183Z,56.73
2018-12-16T07:58:56.449Z,55.34
2018-12-16T08:02:55.345Z,54.29
2018-12-16T08:05:25.126Z,54.33
2018-12-16T08:07:54.950Z,54.73
2018-12-16T08:10:25.689Z,54.69
2018-12-16T08:12:54.886Z,54.29
2018-12-16T08:15:24.594Z,53.78
2018-12-16T08:17:54.700Z,53.81
2018-12-16T08:20:23.864Z,53.84
2018-12-16T08:22:53.070Z,54.16
2018-12-16T08:25:22.419Z,55.59
2018-12-16T08:27:52.434Z,54.72
2018-12-16T08:30:21.636Z,54.84
2018-12-16T08:32:51.203Z,54.17
2018-12-16T08:35:20.469Z,55.15
2018-12-16T08:37:49.686Z,54.21
2018-12-16T08:40:20.809Z,52.87
2018-12-16T08:42:50.030Z,54.33
2018-12-16T08:45:19.232Z,55.23
2018-12-16T08:47:49.823Z,56.15
2018-12-16T08:50:19.738Z,55.82
2018-12-16T08:52:49.491Z,56.37
2018-12-16T08:55:18.698Z,55.98
2018-12-16T08:57:47.977Z,56.25
2018-12-16T09:00:17.171Z,55.48
2018-12-16T09:02:47.527Z,54.32
2018-12-16T09:05:16.722Z,54.79
2018-12-16T09:07:46.231Z,55.77
2018-12-16T09:10:15.780Z,54.84
2018-12-16T09:12:45.063Z,55.49
2018-12-16T09:15:15.422Z,55.75
2018-12-16T09:17:44.998Z,55.60
2018-12-16T09:20:14.195Z,55.48
2018-12-16T09:22:43.470Z,55.08
2018-12-16T09:25:13.270Z,55.38
2018-12-16T09:27:44.674Z,55.10
2018-12-16T09:30:14.078Z,54.56
2018-12-16T09:32:43.234Z,54.28
2018-12-16T09:35:12.464Z,54.36
2018-12-16T09:37:43.300Z,54.69
2018-12-16T09:40:13.009Z,53.25
2018-12-16T09:42:42.246Z,54.05
2018-12-16T09:45:12.163Z,54.03
2018-12-16T09:47:41.760Z,54.77
2018-12-16T09:50:12.234Z,55.18
2018-12-16T09:52:42.010Z,54.98
2018-12-16T09:55:11.202Z,55.03
2018-12-16T09:57:40.968Z,54.85
2018-12-16T10:00:12.032Z,54.37
2018-12-16T10:02:41.383Z,54.11
2018-12-16T10:05:10.603Z,53.59
2018-12-16T10:07:42.183Z,52.46
2018-12-16T10:10:13.276Z,52.92
2018-12-16T10:12:42.503Z,52.63
2018-12-16T10:15:11.752Z,53.99
2018-12-16T10:17:41.505Z,53.40
2018-12-16T10:20:11.922Z,54.40
2018-12-16T10:22:41.797Z,53.64
2018-12-16T10:25:11.143Z,52.65
2018-12-16T10:27:40.326Z,53.50
2018-12-16T10:30:11.335Z,53.85
2018-12-16T10:32:40.638Z,54.20
2018-12-16T10:35:10.495Z,53.72
2018-12-16T10:37:39.816Z,52.64
2018-12-16T10:40:09.402Z,52.40
2018-12-16T10:42:38.960Z,53.35
2018-12-16T10:45:11.001Z,54.35
2018-12-16T10:47:41.387Z,53.16
2018-12-16T10:50:11.731Z,52.50
2018-12-16T10:52:41.056Z,53.83
2018-12-16T10:55:10.638Z,53.30
2018-12-16T10:57:39.866Z,53.50
2018-12-16T11:00:18.416Z,53.89
2018-12-16T11:02:47.615Z,53.77
2018-12-16T11:05:18.845Z,53.46
2018-12-16T11:07:48.087Z,53.59
2018-12-16T11:10:17.446Z,53.43
2018-12-16T11:12:47.072Z,54.51
2018-12-16T11:15:16.868Z,53.87
2018-12-16T11:17:46.571Z,53.80
2018-12-16T11:20:16.027Z,52.79
2018-12-16T11:22:46.795Z,52.07
2018-12-16T11:25:18.043Z,51.46
2018-12-16T11:27:49.027Z,51.39
2018-12-16T11:30:18.414Z,53.52
2018-12-16T11:32:47.726Z,52.94
2018-12-16T11:35:17.196Z,52.86
2018-12-16T11:37:48.168Z,54.28
2018-12-16T11:40:17.454Z,53.49
2018-12-16T11:42:46.825Z,52.72
2018-12-16T11:45:16.079Z,52.33
2018-12-16T11:47:45.899Z,53.06
2018-12-16T11:50:16.719Z,52.97
2018-12-16T11:52:47.071Z,53.00
2018-12-16T11:55:16.346Z,54.11
2018-12-16T11:57:46.059Z,54.09
2018-12-16T12:00:16.808Z,53.73
2018-12-16T12:02:46.575Z,52.83
2018-12-16T12:06:21.713Z,54.01
2018-12-16T12:08:50.970Z,56.80
2018-12-16T12:11:22.095Z,57.68
2018-12-16T12:13:51.910Z,57.86
2018-12-16T12:16:21.168Z,56.28
2018-12-16T12:19:00.718Z,55.61
2018-12-16T12:21:31.006Z,54.41
2018-12-16T12:24:00.747Z,54.98
2018-12-16T12:26:30.303Z,55.29
2018-12-16T12:28:59.524Z,54.06
2018-12-16T12:31:28.811Z,53.29
2018-12-16T12:34:00.141Z,54.68
2018-12-16T12:36:29.890Z,55.38
2018-12-16T12:38:59.267Z,54.82
2018-12-16T12:41:28.510Z,55.74
2018-12-16T12:43:57.758Z,54.59
2018-12-16T12:46:27.675Z,54.33
2018-12-16T12:48:57.561Z,55.36
2018-12-16T12:51:26.864Z,54.20
2018-12-16T12:53:56.183Z,53.71
2018-12-16T12:56:25.400Z,53.58
2018-12-16T12:58:56.283Z,53.68
2018-12-16T13:01:26.359Z,55.45
2018-12-16T13:03:55.584Z,54.76
2018-12-16T13:06:24.803Z,54.90
2018-12-16T13:08:55.268Z,54.85
2018-12-16T13:11:25.286Z,53.74
2018-12-16T13:13:54.977Z,53.44
2018-12-16T13:16:24.297Z,54.16
2018-12-16T13:18:53.475Z,52.85
2018-12-16T13:21:22.672Z,53.72
2018-12-16T13:23:53.635Z,52.71
2018-12-16T13:26:23.415Z,52.68
2018-12-16T13:28:52.613Z,51.69
2018-12-16T13:31:21.908Z,52.52
2018-12-16T13:33:51.539Z,53.33
2018-12-16T13:36:21.271Z,52.61
2018-12-16T13:38:51.050Z,53.02
2018-12-16T13:41:20.283Z,52.93
2018-12-16T13:43:49.513Z,52.59
2018-12-16T13:46:20.686Z,53.52
2018-12-16T13:48:49.863Z,52.53
2018-12-16T13:51:19.335Z,52.22
2018-12-16T13:53:48.562Z,53.91
2018-12-16T13:56:17.796Z,53.86
2018-12-16T13:58:47.887Z,53.32
2018-12-16T14:01:17.080Z,53.54
2018-12-16T14:03:46.319Z,53.28
2018-12-16T14:06:15.661Z,55.34
2018-12-16T14:08:44.857Z,54.86
2018-12-16T14:11:15.787Z,55.15
2018-12-16T14:13:45.371Z,55.20
2018-12-16T14:16:14.546Z,55.33
2018-12-16T14:18:43.748Z,55.46
2018-12-16T14:21:13.403Z,55.05
2018-12-16T14:23:43.089Z,55.23
2018-12-16T14:26:12.351Z,55.33
2018-12-16T14:28:41.630Z,55.32
2018-12-16T14:31:10.894Z,54.69
2018-12-16T14:33:40.112Z,54.41
2018-12-16T14:36:11.379Z,53.66
2018-12-16T14:38:41.380Z,54.63
2018-12-16T14:41:11.608Z,55.44
2018-12-16T14:43:40.915Z,54.72
2018-12-16T14:46:10.202Z,54.72
2018-12-16T14:48:39.925Z,54.59
2018-12-16T14:51:09.240Z,54.17
2018-12-16T14:53:38.477Z,54.32
2018-12-16T14:56:07.896Z,55.26
2018-12-16T14:58:37.145Z,53.41
2018-12-16T15:01:06.840Z,54.55
2018-12-16T15:03:36.101Z,53.86
2018-12-16T15:06:05.507Z,55.27
2018-12-16T15:08:34.950Z,55.72
2018-12-16T15:11:04.213Z,55.84
2018-12-16T15:13:34.475Z,54.95
2018-12-16T15:16:04.906Z,54.10
2018-12-16T15:18:34.188Z,53.41
2018-12-16T15:21:03.566Z,53.15
2018-12-16T15:23:32.828Z,53.81
2018-12-16T15:26:02.639Z,53.71
2018-12-16T15:28:33.578Z,53.46
2018-12-16T15:31:04.255Z,54.28
2018-12-16T15:33:33.458Z,54.28
2018-12-16T15:36:02.701Z,54.67
2018-12-16T15:38:32.395Z,54.84
2018-12-16T15:41:01.606Z,54.80
2018-12-16T15:43:32.014Z,54.88
2018-12-16T15:46:01.356Z,53.85
2018-12-16T15:48:30.555Z,54.86
2018-12-16T15:51:00.648Z,54.13
2018-12-16T15:53:29.863Z,55.83
2018-12-16T15:55:59.342Z,54.30
2018-12-16T15:58:28.708Z,55.79
2018-12-16T16:00:57.916Z,55.57
2018-12-16T16:03:27.724Z,55.24
2018-12-16T16:05:57.034Z,54.45
2018-12-16T16:08:26.198Z,54.76
2018-12-16T16:10:55.426Z,55.75
2018-12-16T16:13:24.967Z,55.21
2018-12-16T16:15:54.729Z,57.65
2018-12-16T16:18:25.103Z,56.78
2018-12-16T16:20:54.376Z,55.63
2018-12-16T16:23:23.574Z,56.29
2018-12-16T16:25:53.902Z,55.71
2018-12-16T16:28:23.758Z,55.73
2018-12-16T16:30:54.320Z,55.86
2018-12-16T16:33:23.851Z,55.34
2018-12-16T16:35:53.411Z,54.83
2018-12-16T16:38:22.660Z,55.32
2018-12-16T16:40:53.239Z,55.77
2018-12-16T16:43:23.902Z,56.61
2018-12-16T16:45:53.155Z,56.38
2018-12-16T16:48:23.734Z,54.39
2018-12-16T16:50:53.839Z,54.79
2018-12-16T16:53:23.055Z,55.03
2018-12-16T16:55:52.415Z,54.53
2018-12-16T16:58:21.635Z,53.76
2018-12-16T17:00:50.848Z,54.71
2018-12-16T17:03:20.509Z,54.30
2018-12-16T17:05:49.789Z,56.09
2018-12-16T17:08:19.008Z,55.72
2018-12-16T17:10:48.410Z,56.70
2018-12-16T17:13:17.613Z,56.30
2018-12-16T17:15:47.527Z,56.29
2018-12-16T17:18:16.730Z,55.66
2018-12-16T17:20:47.319Z,55.67
2018-12-16T17:23:16.934Z,55.70
2018-12-16T17:25:48.393Z,56.66
2018-12-16T17:28:18.333Z,55.54
2018-12-16T17:30:47.509Z,57.45
2018-12-16T17:33:16.707Z,55.67
2018-12-16T17:35:46.047Z,56.84
2018-12-16T17:38:15.651Z,55.03
2018-12-16T17:40:45.328Z,55.42
2018-12-16T17:43:14.583Z,54.63
2018-12-16T17:45:43.826Z,55.44
2018-12-16T17:48:13.051Z,55.37
2018-12-16T17:50:42.739Z,54.22
2018-12-16T17:53:12.581Z,53.57
2018-12-16T17:55:41.835Z,53.41
2018-12-16T17:58:11.598Z,55.11
2018-12-16T18:00:40.917Z,54.78
2018-12-16T18:03:10.171Z,53.22
2018-12-16T18:05:40.199Z,53.01
2018-12-16T18:08:09.477Z,53.56
2018-12-16T18:10:38.772Z,54.34
2018-12-16T18:13:08.094Z,55.95
2018-12-16T18:15:38.055Z,56.29
2018-12-16T18:18:07.850Z,56.08
2018-12-16T18:20:37.275Z,55.73
2018-12-16T18:23:06.966Z,56.54
2018-12-16T18:25:37.019Z,55.69
2018-12-16T18:28:06.487Z,54.45
2018-12-16T18:30:36.199Z,53.90
2018-12-16T18:33:05.734Z,54.07
2018-12-16T18:35:35.127Z,54.26
2018-12-16T18:38:04.756Z,54.39
2018-12-16T18:40:34.085Z,56.16
2018-12-16T18:43:03.797Z,54.44
2018-12-16T18:47:02.399Z,54.49
2018-12-16T18:49:32.823Z,54.81
2018-12-16T18:52:02.284Z,54.80
2018-12-16T18:54:32.224Z,54.31
2018-12-16T18:57:07.098Z,53.46
2018-12-16T18:59:32.860Z,53.50
2018-12-16T19:02:02.342Z,54.57
2018-12-16T19:04:32.896Z,55.80
2018-12-16T19:07:02.700Z,56.91
2018-12-16T19:09:32.007Z,57.19
2018-12-16T19:12:02.234Z,57.91
2018-12-16T19:14:32.003Z,56.22
2018-12-16T19:17:01.791Z,56.12
2018-12-16T19:19:31.422Z,56.35
2018-12-16T19:22:00.640Z,56.62
2018-12-16T19:24:31.523Z,56.29
2018-12-16T19:27:00.889Z,56.31
2018-12-16T19:29:30.125Z,56.58
2018-12-16T19:32:00.183Z,57.13
2018-12-16T19:34:29.383Z,58.18
2018-12-16T19:38:28.367Z,58.37
2018-12-16T19:40:58.244Z,57.40
2018-12-16T19:43:28.049Z,58.07
2018-12-16T19:45:58.583Z,57.16
2018-12-16T19:48:28.219Z,58.94
2018-12-16T19:50:57.452Z,57.52
2018-12-16T19:53:26.744Z,57.73
2018-12-16T19:55:56.463Z,57.70
2018-12-16T19:58:26.208Z,57.03
2018-12-16T20:00:55.530Z,57.57
2018-12-16T20:03:24.711Z,57.36
2018-12-16T20:05:59.131Z,57.28
2018-12-16T20:08:28.919Z,57.67
2018-12-16T20:10:58.106Z,59.35
2018-12-16T20:13:27.658Z,58.43
2018-12-16T20:16:01.439Z,59.71
2018-12-16T20:18:28.483Z,61.95
2018-12-16T20:20:58.154Z,61.32
2018-12-16T20:23:27.360Z,59.15
2018-12-16T20:25:57.956Z,59.56
2018-12-16T20:28:27.227Z,59.10
2018-12-16T20:30:56.494Z,58.20
2018-12-16T20:33:27.218Z,57.57
2018-12-16T20:35:57.227Z,58.05
2018-12-16T20:38:27.116Z,57.38
2018-12-16T20:40:56.854Z,58.74
2018-12-16T20:43:26.072Z,57.46
2018-12-16T20:45:55.923Z,56.48
2018-12-16T20:48:25.673Z,56.52
2018-12-16T20:50:54.893Z,58.40
2018-12-16T20:53:24.199Z,56.77
2018-12-16T20:55:54.160Z,56.82
2018-12-16T20:58:23.915Z,58.22
2018-12-16T21:00:53.259Z,56.72
2018-12-16T21:03:22.560Z,55.97
2018-12-16T21:05:51.776Z,55.77
2018-12-16T21:08:21.074Z,58.01
2018-12-16T21:10:51.044Z,58.45
2018-12-16T21:13:25.463Z,58.38
2018-12-16T21:15:59.978Z,58.44
2018-12-16T21:18:30.292Z,57.38
2018-12-16T21:20:59.974Z,57.41
2018-12-16T21:23:29.217Z,56.87
2018-12-16T21:25:59.139Z,56.37
2018-12-16T21:28:28.335Z,55.42
2018-12-16T21:30:58.929Z,54.74
2018-12-16T21:33:28.723Z,56.53
2018-12-16T21:35:58.246Z,55.92
2018-12-16T21:38:27.548Z,55.78
2018-12-16T21:40:56.849Z,55.80
2018-12-16T21:43:26.073Z,55.84
2018-12-16T21:45:56.093Z,55.61
2018-12-16T21:48:25.613Z,56.77
2018-12-16T21:50:54.811Z,55.78
2018-12-16T21:53:24.120Z,55.54
2018-12-16T21:55:53.354Z,55.64
2018-12-16T21:58:23.053Z,58.69
2018-12-16T22:00:52.413Z,58.18
2018-12-16T22:03:21.727Z,58.69
2018-12-16T22:05:51.255Z,60.81
2018-12-16T22:08:21.148Z,59.38
2018-12-16T22:10:51.395Z,59.37
2018-12-16T22:13:20.597Z,60.11
2018-12-16T22:15:50.125Z,58.99
2018-12-16T22:18:19.372Z,58.84
2018-12-16T22:20:48.575Z,59.42
2018-12-16T22:23:18.291Z,59.16
2018-12-16T22:25:47.507Z,58.74
2018-12-16T22:28:17.660Z,57.69
2018-12-16T22:30:46.860Z,57.36
2018-12-16T22:33:16.151Z,56.97
2018-12-16T22:35:45.864Z,56.19
2018-12-16T22:38:15.203Z,56.63
2018-12-16T22:40:44.626Z,56.31
2018-12-16T22:43:14.125Z,57.57
2018-12-16T22:45:44.322Z,57.19
2018-12-16T22:48:14.019Z,58.67
2018-12-16T22:50:43.190Z,58.62
2018-12-16T22:53:12.443Z,58.23
2018-12-16T22:55:42.702Z,59.04
2018-12-16T22:58:11.909Z,60.91
2018-12-16T23:00:48.157Z,61.07
2018-12-16T23:03:17.534Z,58.97
2018-12-16T23:05:46.783Z,59.06
2018-12-16T23:08:16.444Z,59.10
2018-12-16T23:10:46.212Z,59.86
2018-12-16T23:13:15.395Z,58.72
2018-12-16T23:15:45.735Z,58.27
2018-12-16T23:18:15.020Z,58.45
2018-12-16T23:20:44.897Z,58.31
2018-12-16T23:23:14.734Z,58.12
2018-12-16T23:25:44.068Z,57.41
2018-12-16T23:28:13.515Z,58.24
2018-12-16T23:30:44.419Z,57.62
2018-12-16T23:33:13.696Z,57.88
2018-12-16T23:35:43.791Z,57.67
2018-12-16T23:38:13.743Z,57.79
2018-12-16T23:40:43.275Z,57.01
2018-12-16T23:43:13.112Z,56.98
2018-12-16T23:45:42.661Z,56.85
2018-12-16T23:48:12.765Z,57.49
2018-12-16T23:50:42.159Z,57.37
2018-12-16T23:53:11.407Z,57.01
2018-12-16T23:55:40.608Z,56.62
2018-12-16T23:58:09.846Z,57.07
